This is the latest recevied weather packets stored in our database for station/object YU4PTT-8. If no packets are shown the sender has not sent any weather packets the latest 10 day(s).
| Time | Temp. | Humidity | Pressure | Rain* | Wind** | Luminosity | Snow |
|---|---|---|---|---|---|---|---|
| 1777591099 | 1.67° C | 60% | 1011.1 hPa | 0 mm | 1.34 m/s, 22° | - | - |
| 1777588699 | 1.67° C | 60% | 1011.2 hPa | 0 mm | 2.24 m/s, 0° | - | - |
| 1777586299 | 2.22° C | 59% | 1011.4 hPa | 0 mm | 1.79 m/s, 22° | - | - |
| 1777583899 | 2.22° C | 57% | 1011.1 hPa | 0 mm | 2.24 m/s, 338° | - | - |
| 1777581499 | 2.78° C | 58% | 1011.3 hPa | 0 mm | 2.24 m/s, 22° | - | - |
| 1777579099 | 3.33° C | 58% | 1011.4 hPa | 0 mm | 3.13 m/s, 315° | - | - |
| 1777576729 | 3.33° C | 57% | 1011.1 hPa | 0 mm | 1.34 m/s, 315° | - | - |
| 1777574899 | 3.33° C | 58% | 1011.1 hPa | 0 mm | 3.13 m/s, 338° | - | - |
| 1777572499 | 3.33° C | 59% | 1010.9 hPa | 0 mm | 3.58 m/s, 315° | - | - |
| 1777570100 | 3.89° C | 60% | 1010.8 hPa | 0 mm | 3.13 m/s, 315° | - | - |
| 1777568299 | 4.44° C | 62% | 1010.7 hPa | 0 mm | 2.24 m/s, 338° | - | - |
| 1777565899 | 5° C | 62% | 1010.3 hPa | 0 mm | 2.68 m/s, 338° | - | - |
| 1777563499 | 5.56° C | 63% | 1010.5 hPa | 0 mm | 3.13 m/s, 315° | - | - |
| 1777561100 | 5° C | 62% | 1010.6 hPa | 0 mm | 1.79 m/s, 338° | - | - |
| 1777558729 | 5.56° C | 62% | 1010.4 hPa | 0 mm | 3.13 m/s, 338° | - | - |
| 1777556899 | 4.44° C | 68% | 1010.5 hPa | 0 mm | 2.68 m/s, 0° | - | - |
| 1777554529 | 5° C | 66% | 1010.8 hPa | 0 mm | 3.13 m/s, 338° | - | - |
| 1777552130 | 4.44° C | 70% | 1011 hPa | 0 mm | 3.13 m/s, 338° | - | - |
| 1777550299 | 5° C | 72% | 1011.1 hPa | 0 mm | 3.58 m/s, 338° | - | - |
| 1777547929 | 3.89° C | 79% | 1011 hPa | 0 mm | 2.24 m/s, 0° | - | - |
| 1777546099 | 3.33° C | 79% | 1011 hPa | 1.27 mm | 4.47 m/s, 338° | - | - |
| 1777543699 | 2.78° C | 93% | 1011.1 hPa | 4.83 mm | 2.24 m/s, 0° | - | - |
| 1777541329 | 2.22° C | 96% | 1011.1 hPa | 2.29 mm | 1.79 m/s, 45° | - | - |
| 1777539500 | 1.67° C | 95% | 1011 hPa | 0 mm | 3.58 m/s, 0° | - | - |
| 1777537099 | 0.56° C | 95% | 1010.7 hPa | 0 mm | 2.68 m/s, 338° | - | - |
* Rain latest hour (hover to see other rain measurements)
** Current wind speed in m/s (hover to see current wind gust speed)